Thunder radar more information blitzortung!


Radar de pluja more information rain snow radar


Visita la nostra xarxa de llocs de meteo:

Template documentation
and downloads

And another site



No particular awareness of the weather is required.    There are no Weather-warnings

Pagina Historial Weather Underground text

Diari Resum Marc 23, 2016 Unitats:  Mètric    Imperial   Tant
« Previous Dia
SegĂźent Dia »
Diari Setmana Mensual Anual Personalitzada
  Maxima: Minima: Media:
Temperatura: -17.8 °C -14.4 °C -11.1 °C
Punt de rosada: -17.8 °C -19.6 °C -17.9 °C
Humitat: Humidity % 30 % 43 %
Wind Speed: 0 km/h 0 km/h 5.5 km/h
RĂ fegues de vent: 0 km/h - -
Vent:- - SSE
Pression baro: 0 hPa 33890.5 hPa -
Precipitacions: 0 mm    
Historical Graphs
 
 
Dades de taula per Marc 23, 2016
Temps Temperatura Punt de rosada Pression baro Vent Wind Speed RĂ fegues de vent Humitat Rainfall Rate (Hourly)
-17.8 °C -17.8 °C 0 hPa Calm     Humidity % 0 mm
00:05 -14.3 °C -18.7 °C 33958.2 hPa West 2.6 km/h 7.7 km/h 57 % 0 mm
00:15 -14.3 °C -18.7 °C 33958.2 hPa WNW 5.1 km/h 10.3 km/h 57 % 0 mm
00:25 -14.3 °C -18.7 °C 33958.2 hPa West 2.6 km/h 7.7 km/h 57 % 0 mm
00:35 -14.4 °C -18.8 °C 33958.2 hPa West 2.6 km/h 10.3 km/h 57 % 0 mm
00:45 -14.4 °C -18.8 °C 33958.2 hPa WSW 7.7 km/h 7.7 km/h 57 % 0 mm
00:55 -14.4 °C -18.8 °C 33958.2 hPa WSW 5.1 km/h 12.9 km/h 57 % 0 mm
01:05 -14.4 °C -18.8 °C 33958.2 hPa WNW 5.1 km/h 7.7 km/h 57 % 0 mm
01:15 -14.4 °C -18.8 °C 33958.2 hPa WNW 5.1 km/h 10.3 km/h 57 % 0 mm
01:25 -14.4 °C -18.7 °C 33992.1 hPa West 2.6 km/h 7.7 km/h 58 % 0 mm
01:35 -14.4 °C -18.7 °C 33992.1 hPa NNE 5.1 km/h 7.7 km/h 58 % 0 mm
01:45 -14.3 °C -18.6 °C 33992.1 hPa ENE 2.6 km/h 7.7 km/h 58 % 0 mm
01:55 -14.3 °C -18.6 °C 33992.1 hPa NNE 5.1 km/h 10.3 km/h 58 % 0 mm
02:05 -14.3 °C -18.6 °C 33992.1 hPa NE 5.1 km/h 10.3 km/h 58 % 0 mm
02:15 -14.2 °C -18.4 °C 33992.1 hPa NE 2.6 km/h 7.7 km/h 59 % 0 mm
02:25 -14.2 °C -18.3 °C 33992.1 hPa NE 7.7 km/h 7.7 km/h 59 % 0 mm
02:35 -14.1 °C -18.2 °C 33992.1 hPa NE 2.6 km/h 5.1 km/h 59 % 0 mm
02:45 -14.1 °C -18.3 °C 33992.1 hPa NE 5.1 km/h 10.3 km/h 58 % 0 mm
03:15 -14.1 °C -18.3 °C 33992.1 hPa NNE 5.1 km/h 7.7 km/h 58 % 0 mm
03:35 -13.3 °C -17.9 °C 33992.1 hPa NNE 7.7 km/h 15.6 km/h 56 % 0 mm
03:45 -13.2 °C -17.6 °C 33992.1 hPa NNE 5.1 km/h 10.3 km/h 57 % 0 mm
04:15 -12.4 °C -17.1 °C 33958.2 hPa NE 7.7 km/h 10.3 km/h 56 % 0 mm
04:35 -11.9 °C -16.8 °C 33992.1 hPa NE 7.7 km/h 10.3 km/h 55 % 0 mm
04:55 -11.4 °C -16.4 °C 33992.1 hPa NE 12.9 km/h 15.6 km/h 54 % 0 mm
05:15 -10.7 °C -15.9 °C 33992.1 hPa NE 7.7 km/h 7.7 km/h 53 % 0 mm
05:25 -10.5 °C -15.7 °C 33992.1 hPa NE 7.7 km/h 10.3 km/h 53 % 0 mm
05:35 -10.2 °C -15.6 °C 33992.1 hPa NE 5.1 km/h 10.3 km/h 52 % 0 mm
05:45 -9.8 °C -15.2 °C 33992.1 hPa NE 7.7 km/h 12.9 km/h 52 % 0 mm
05:55 -9.8 °C -15.2 °C 33992.1 hPa ENE 7.7 km/h 10.3 km/h 52 % 0 mm
06:05 -9.7 °C -15.1 °C 33992.1 hPa NE 7.7 km/h 10.3 km/h 52 % 0 mm
06:15 -9.6 °C -15.1 °C 33958.2 hPa NE 2.6 km/h 10.3 km/h 52 % 0 mm
06:25 -8.9 °C -14.7 °C 33992.1 hPa NE 7.7 km/h 12.9 km/h 50 % 0 mm
06:35 -8.9 °C -14.7 °C 33992.1 hPa NE 2.6 km/h 7.7 km/h 50 % 0 mm
06:45 -8.4 °C -14.7 °C 33958.2 hPa West 7.7 km/h 15.6 km/h 47 % 0 mm
06:55 -8.2 °C -15.1 °C 33958.2 hPa WSW 7.7 km/h 15.6 km/h 44 % 0 mm
07:05 -8.2 °C -15.3 °C 33958.2 hPa WSW 15.6 km/h 15.6 km/h 43 % 0 mm
07:15 -8.5 °C -15.9 °C 33958.2 hPa SW 15.6 km/h 23.3 km/h 41 % 0 mm
07:25 -8.4 °C -15.7 °C 33958.2 hPa WSW 7.7 km/h 15.6 km/h 42 % 0 mm
07:35 -7.8 °C -15.1 °C 33958.2 hPa West 7.7 km/h 12.9 km/h 42 % 0 mm
07:45 -8.1 °C -15.9 °C 33958.2 hPa WSW 15.6 km/h 23.3 km/h 39 % 0 mm
07:55 -7.9 °C -15.6 °C 33958.2 hPa West 12.9 km/h 23.3 km/h 40 % 0 mm
08:15 -7.7 °C -16.2 °C 33958.2 hPa West 12.9 km/h 15.6 km/h 36 % 0 mm
08:25 -7.6 °C -16.3 °C 33924.3 hPa WSW 12.9 km/h 15.6 km/h 35 % 0 mm
08:35 -7.5 °C -16.5 °C 33924.3 hPa West 12.9 km/h 25.9 km/h 34 % 0 mm
08:45 -7.5 °C -16.5 °C 33924.3 hPa WNW 7.7 km/h 28.5 km/h 34 % 0 mm
08:55 -7.3 °C -16.3 °C 33924.3 hPa West 12.9 km/h 15.6 km/h 34 % 0 mm
09:05 -7.4 °C -16.4 °C 33924.3 hPa WSW 12.9 km/h 15.6 km/h 34 % 0 mm
09:15 -7.2 °C -16.5 °C 33924.3 hPa WSW 12.9 km/h 15.6 km/h 33 % 0 mm
09:25 -7 °C -16.1 °C 33924.3 hPa West 7.7 km/h 12.9 km/h 34 % 0 mm
09:35 -7 °C -16.3 °C 33924.3 hPa West 15.6 km/h 15.6 km/h 33 % 0 mm
09:45 -6.9 °C -16.2 °C 33924.3 hPa WSW 7.7 km/h 15.6 km/h 33 % 0 mm
09:55 -6.9 °C -16.4 °C 33890.5 hPa WSW 15.6 km/h 20.8 km/h 32 % 0 mm
10:05 -6.9 °C -16.4 °C 33890.5 hPa West 7.7 km/h 23.3 km/h 32 % 0 mm
10:25 -6.7 °C -16.3 °C 33924.3 hPa WSW 5.1 km/h 15.6 km/h 32 % 0 mm
10:45 -6.6 °C -16.4 °C 33924.3 hPa WSW 7.7 km/h 12.9 km/h 31 % 0 mm
10:55 -6.7 °C -16.5 °C 33924.3 hPa SW 7.7 km/h 15.6 km/h 31 % 0 mm
11:05 -6.7 °C -16.5 °C 33924.3 hPa SW 7.7 km/h 15.6 km/h 31 % 0 mm
11:15 -6.7 °C -16.5 °C 33924.3 hPa WSW 7.7 km/h 10.3 km/h 31 % 0 mm
11:25 -6.8 °C -16.6 °C 33890.5 hPa WSW 12.9 km/h 15.6 km/h 31 % 0 mm
11:35 -6.7 °C -16.5 °C 33890.5 hPa WSW 7.7 km/h 10.3 km/h 31 % 0 mm
11:45 -6.9 °C -16.7 °C 33924.3 hPa WSW 7.7 km/h 7.7 km/h 31 % 0 mm
11:55 -6.9 °C -17 °C 33924.3 hPa WSW 7.7 km/h 7.7 km/h 30 % 0 mm
12:05 -7.1 °C -16.8 °C 33924.3 hPa West 2.6 km/h 10.3 km/h 31 % 0 mm
12:15 -7.4 °C -17.1 °C 33958.2 hPa West 7.7 km/h 18.2 km/h 31 % 0 mm
12:25 -7.6 °C -17.3 °C 33958.2 hPa West 5.1 km/h 7.7 km/h 31 % 0 mm
12:35 -7.7 °C -17.4 °C 33958.2 hPa West 2.6 km/h 10.3 km/h 31 % 0 mm
12:45 -7.9 °C -17.3 °C 33992.1 hPa West 7.7 km/h 7.7 km/h 32 % 0 mm
12:55 -8.9 °C -16.8 °C 34029.3 hPa ENE 18.2 km/h 18.2 km/h 38 % 0 mm
13:05 -9.3 °C -16.7 °C 34029.3 hPa ENE 18.2 km/h 28.5 km/h 41 % 0 mm
13:15 -9.8 °C -16.9 °C 33992.1 hPa ENE 15.6 km/h 15.6 km/h 42 % 0 mm
13:25 -10.1 °C -16.9 °C 34029.3 hPa NE 15.6 km/h 25.9 km/h 43 % 0 mm
13:55 -10.5 °C -17.7 °C 34063.2 hPa NE 15.6 km/h 15.6 km/h 41 % 0 mm
14:05 -10.6 °C -17.9 °C 34063.2 hPa NE 7.7 km/h 15.6 km/h 40 % 0 mm
14:15 -10.6 °C -18.2 °C 34063.2 hPa NE 12.9 km/h 18.2 km/h 39 % 0 mm
14:35 -10.7 °C -18.3 °C 34029.3 hPa NE 7.7 km/h 12.9 km/h 39 % 0 mm
14:45 -10.8 °C -18.3 °C 34063.2 hPa NE 12.9 km/h 12.9 km/h 39 % 0 mm
14:55 -10.8 °C -18.3 °C 34063.2 hPa NE 12.9 km/h 12.9 km/h 39 % 0 mm
15:05 -10.9 °C -18.4 °C 34063.2 hPa NE 7.7 km/h 15.6 km/h 39 % 0 mm
18:20 -12.9 °C -19.3 °C 34130.9 hPa SW 5.1 km/h 7.7 km/h 44 % 0 mm
18:30 -12.9 °C -19.4 °C 34130.9 hPa SW 2.6 km/h 7.7 km/h 44 % 0 mm
18:40 -13 °C -19.3 °C 34130.9 hPa Calm   5.1 km/h 45 % 0 mm
18:50 -13.1 °C -19.2 °C 34130.9 hPa Calm   2.6 km/h 46 % 0 mm
19:00 -13.4 °C -19.3 °C 34130.9 hPa WNW 5.1 km/h 10.3 km/h 47 % 0 mm
19:10 -13.4 °C -19.3 °C 34130.9 hPa Calm   2.6 km/h 47 % 0 mm
19:20 -13.6 °C -19.3 °C 34130.9 hPa Calm   2.6 km/h 48 % 0 mm
19:30 -13.7 °C -19.2 °C 34164.7 hPa WNW 2.6 km/h 5.1 km/h 49 % 0 mm
19:40 -13.7 °C -19.3 °C 34130.9 hPa Calm   2.6 km/h 49 % 0 mm
19:50 -13.8 °C -19.2 °C 34130.9 hPa Calm     50 % 0 mm
20:00 -13.9 °C -19.3 °C 34164.7 hPa Calm     50 % 0 mm
20:10 -13.9 °C -19.3 °C 34164.7 hPa NE 2.6 km/h 2.6 km/h 50 % 0 mm
20:20 -13.9 °C -19.2 °C 34164.7 hPa Calm   5.1 km/h 51 % 0 mm
20:30 -14.1 °C -19.3 °C 34164.7 hPa Calm   5.1 km/h 51 % 0 mm
20:40 -14.1 °C -19.3 °C 34164.7 hPa Calm   2.6 km/h 51 % 0 mm
20:50 -14 °C -19.3 °C 34164.7 hPa North 2.6 km/h 5.1 km/h 51 % 0 mm
21:00 -14 °C -19.3 °C 34164.7 hPa NE 2.6 km/h 2.6 km/h 51 % 0 mm
21:05 -10.9 °C -18.4 °C 34063.2 hPa NE 9.3 km/h 10.3 km/h 39 % 0 mm
21:10 -10.9 °C -18.5 °C 34063.2 hPa ENE 9 km/h 9 km/h 39 % 0 mm
21:15 -10.9 °C -18.5 °C 34063.2 hPa NE 6.8 km/h 6.8 km/h 39 % 0 mm
21:20 -11.1 °C -18.6 °C 34063.2 hPa NE 3.1 km/h 5.1 km/h 39 % 0 mm
21:25 -11.2 °C -18.7 °C 34097 hPa NE 3.1 km/h 5.1 km/h 39 % 0 mm
21:30 -11.3 °C -18.8 °C 34097 hPa NE 3.1 km/h 5.1 km/h 39 % 0 mm
21:35 -11.3 °C -18.7 °C 34097 hPa NE 3.1 km/h 5.1 km/h 40 % 0 mm
21:40 -11.3 °C -18.7 °C 34097 hPa NE 3.1 km/h 5.1 km/h 40 % 0 mm
21:45 -11.3 °C -18.7 °C 34097 hPa NE 3.1 km/h 5.1 km/h 40 % 0 mm
21:50 -11.4 °C -18.7 °C 34097 hPa NNE 3.7 km/h 4.2 km/h 40 % 0 mm
21:55 -11.5 °C -18.8 °C 34097 hPa NNE 3.7 km/h 4.2 km/h 40 % 0 mm
22:00 -11.5 °C -18.8 °C 34097 hPa NNE 3.7 km/h 4.2 km/h 40 % 0 mm
22:05 -11.6 °C -18.9 °C 34097 hPa NNE 3.7 km/h 4.2 km/h 40 % 0 mm
22:10 -11.6 °C -18.9 °C 34097 hPa NNE 3.7 km/h 4.2 km/h 40 % 0 mm
22:15 -11.7 °C -18.9 °C 34097 hPa NE 3.1 km/h   40 % 0 mm
22:20 -11.6 °C -18.9 °C 34097 hPa Calm     40 % 0 mm
22:25 -11.7 °C -18.9 °C 34097 hPa Calm     40 % 0 mm
22:30 -11.7 °C -19 °C 34097 hPa Calm     40 % 0 mm
22:35 -11.7 °C -19 °C 34097 hPa Calm     40 % 0 mm
22:40 -11.7 °C -19 °C 34097 hPa Calm     40 % 0 mm
22:45 -11.7 °C -18.9 °C 34097 hPa Calm     40 % 0 mm
22:50 -11.7 °C -18.8 °C 34097 hPa Calm     41 % 0 mm
22:55 -11.7 °C -18.8 °C 34130.9 hPa Calm     41 % 0 mm
23:00 -11.8 °C -18.9 °C 34130.9 hPa Calm     41 % 0 mm
23:05 -11.8 °C -18.9 °C 34130.9 hPa Calm     41 % 0 mm
23:10 -11.9 °C -18.9 °C 34130.9 hPa Calm     41 % 0 mm
23:15 -12 °C -19.1 °C 34130.9 hPa Calm     41 % 0 mm
23:20 -12 °C -19.1 °C 34130.9 hPa Calm     41 % 0 mm
23:25 -12 °C -19.1 °C 34130.9 hPa Calm     41 % 0 mm
23:30 -12.1 °C -19.1 °C 34130.9 hPa NNW 3.1 km/h 4.2 km/h 41 % 0 mm
23:35 -12 °C -19.1 °C 34130.9 hPa NE 6 km/h 6 km/h 41 % 0 mm
23:40 -12 °C -19.1 °C 34130.9 hPa Calm     41 % 0 mm
23:43 -12.1 °C -19.1 °C 34130.9 hPa Calm     41 % 0 mm
23:48 -12.6 °C -19.4 °C 34130.9 hPa Calm     42 % 0 mm
23:49 -12.7 °C -19.5 °C 34130.9 hPa Calm     42 % 0 mm
23:50 -12.7 °C -19.5 °C 34130.9 hPa Calm     42 % 0 mm
23:51 -12.7 °C -19.6 °C 34130.9 hPa Calm     42 % 0 mm
23:53 -12.8 °C -19.6 °C 34130.9 hPa Calm     42 % 0 mm
23:54 -12.8 °C -19.6 °C 34130.9 hPa Calm     42 % 0 mm
23:55 -12.8 °C -19.6 °C 34130.9 hPa Calm     42 % 0 mm
23:57 -12.8 °C -19.6 °C 34130.9 hPa Calm     42 % 0 mm
23:58 -12.8 °C -19.6 °C 34130.9 hPa Calm     42 % 0 mm
23:59 -12.7 °C -19.6 °C 34130.9 hPa Calm     42 % 0 mm
Meteo Sesrovires
Elogis d' Weather Underground - 2 mb

Guio original per  Jim McMurry - jmcmurry@mwt.net Adaptat per a la plantilla per  Wim van der Kuil - Leuven-Template.eu

Trobareu la nostra informacio del temps tambe a:

Weather Underground

AWEKAS